Time;durP1;ratioP1;P1;durP2;ratioP2;P2;SDS_P1;SDS_P2;PMS_P1;PMS_P2;Temp;Humidity;BMP_temperature;BMP_pressure;BME280_temperature;BME280_humidity;BME280_pressure;Samples;Min_cycle;Max_cycle;Signal;HPM_P1;HPM_P2
2021/09/24 00:02:28;;;;;;;10.30;8.33;;;;;;;;;;5120505;28;20197;-63
2021/09/24 00:04:58;;;;;;;10.47;8.70;;;;;;;;;;5121005;28;20256;-63
2021/09/24 00:07:26;;;;;;;10.30;8.67;;;;;;;;;;5120517;28;20236;-63
2021/09/24 00:09:54;;;;;;;9.13;7.93;;;;;;;;;;5120594;28;20560;-63
2021/09/24 00:12:22;;;;;;;13.33;8.33;;;;;;;;;;5120692;28;20256;-63
2021/09/24 00:14:50;;;;;;;11.07;8.00;;;;;;;;;;5120863;28;20221;-64
2021/09/24 00:17:19;;;;;;;11.87;8.20;;;;;;;;;;5120386;28;20228;-64
2021/09/24 00:19:48;;;;;;;12.00;8.53;;;;;;;;;;5120576;28;20270;-63
2021/09/24 00:22:16;;;;;;;11.93;8.00;;;;;;;;;;5120278;28;20205;-63
2021/09/24 00:24:44;;;;;;;8.73;7.60;;;;;;;;;;5120466;28;20761;-63
2021/09/24 00:27:12;;;;;;;10.43;7.87;;;;;;;;;;5120186;28;20205;-63
2021/09/24 00:29:40;;;;;;;10.10;8.27;;;;;;;;;;5120439;28;20667;-64
2021/09/24 00:32:08;;;;;;;10.93;7.83;;;;;;;;;;5120098;28;20205;-63
2021/09/24 00:34:36;;;;;;;9.53;7.80;;;;;;;;;;5120065;28;20229;-63
2021/09/24 00:37:06;;;;;;;12.40;8.37;;;;;;;;;;5120466;28;20221;-63
2021/09/24 00:39:34;;;;;;;9.73;7.63;;;;;;;;;;5120387;28;20243;-63
2021/09/24 00:42:02;;;;;;;10.00;8.17;;;;;;;;;;5119128;28;20652;-63
2021/09/24 00:44:39;;;;;;;10.20;7.70;;;;;;;;;;5120175;28;20311;-64
2021/09/24 00:47:07;;;;;;;13.80;9.00;;;;;;;;;;5120185;28;20253;-62
2021/09/24 00:49:36;;;;;;;10.40;8.40;;;;;;;;;;5119757;28;20321;-64
2021/09/24 00:52:04;;;;;;;11.93;8.43;;;;;;;;;;5120084;28;20243;-63
2021/09/24 00:54:33;;;;;;;9.20;7.70;;;;;;;;;;5119902;28;20236;-63
2021/09/24 00:57:02;;;;;;;9.30;8.20;;;;;;;;;;5119615;28;20255;-63
2021/09/24 00:59:30;;;;;;;11.27;8.80;;;;;;;;;;5119880;28;20205;-63
2021/09/24 01:01:58;;;;;;;11.13;8.07;;;;;;;;;;5119507;28;20232;-63
2021/09/24 01:04:26;;;;;;;11.67;8.63;;;;;;;;;;5119702;27;20840;-63
2021/09/24 01:06:55;;;;;;;12.57;8.47;;;;;;;;;;5119453;27;20228;-63
2021/09/24 01:09:24;;;;;;;11.17;8.67;;;;;;;;;;5119635;28;20213;-63
2021/09/24 01:11:54;;;;;;;10.83;8.10;;;;;;;;;;5119023;28;20300;-63
2021/09/24 01:14:21;;;;;;;10.67;7.83;;;;;;;;;;5119458;28;20263;-63
2021/09/24 01:16:49;;;;;;;11.87;8.63;;;;;;;;;;5119145;28;20236;-63
2021/09/24 01:19:17;;;;;;;11.20;8.40;;;;;;;;;;5119316;27;20260;-63
2021/09/24 01:21:47;;;;;;;10.80;8.30;;;;;;;;;;5119197;28;20265;-63
2021/09/24 01:24:15;;;;;;;12.13;8.83;;;;;;;;;;5119039;28;20793;-63
2021/09/24 01:26:45;;;;;;;10.77;8.50;;;;;;;;;;5119113;27;20209;-63
2021/09/24 01:29:13;;;;;;;10.77;8.50;;;;;;;;;;5119512;28;20236;-63
2021/09/24 01:31:42;;;;;;;13.40;9.30;;;;;;;;;;5118895;28;20247;-63
2021/09/24 01:34:10;;;;;;;13.30;9.37;;;;;;;;;;5119210;27;20232;-63
2021/09/24 01:36:37;;;;;;;14.33;9.27;;;;;;;;;;5118880;28;20658;-61
2021/09/24 01:39:08;;;;;;;15.87;9.60;;;;;;;;;;5119153;28;20268;-61
2021/09/24 01:41:38;;;;;;;16.47;8.70;;;;;;;;;;5118799;28;20232;-63
2021/09/24 01:44:06;;;;;;;12.53;9.80;;;;;;;;;;5119104;28;20260;-63
2021/09/24 01:46:37;;;;;;;13.97;9.37;;;;;;;;;;5118584;28;20208;-62
2021/09/24 01:49:05;;;;;;;13.00;9.47;;;;;;;;;;5118633;28;20634;-62
2021/09/24 01:51:33;;;;;;;11.83;9.23;;;;;;;;;;5118815;28;20681;-62
2021/09/24 01:54:01;;;;;;;12.50;9.17;;;;;;;;;;5118630;28;20250;-62
2021/09/24 01:56:30;;;;;;;11.13;9.57;;;;;;;;;;5118321;28;20602;-61
2021/09/24 01:58:59;;;;;;;12.90;9.10;;;;;;;;;;5118607;28;20229;-61
2021/09/24 02:01:27;;;;;;;11.80;9.47;;;;;;;;;;5118383;28;20686;-61
2021/09/24 02:03:55;;;;;;;13.17;9.87;;;;;;;;;;5118569;28;20221;-61
2021/09/24 02:06:24;;;;;;;14.50;9.30;;;;;;;;;;5118342;28;20228;-61
2021/09/24 02:08:52;;;;;;;13.13;9.97;;;;;;;;;;5118584;28;20238;-61
2021/09/24 02:11:20;;;;;;;12.63;9.60;;;;;;;;;;5118318;28;20253;-61
2021/09/24 02:13:49;;;;;;;14.43;9.80;;;;;;;;;;5114380;28;20269;-61
2021/09/24 02:16:17;;;;;;;14.07;10.40;;;;;;;;;;5118222;28;20605;-61
2021/09/24 02:18:45;;;;;;;14.20;11.37;;;;;;;;;;5114723;28;20270;-61
2021/09/24 02:21:13;;;;;;;15.60;9.93;;;;;;;;;;5118347;28;20312;-60
2021/09/24 02:23:41;;;;;;;15.30;11.10;;;;;;;;;;5118343;28;20287;-60
2021/09/24 02:26:09;;;;;;;13.87;10.37;;;;;;;;;;5118084;28;20278;-61
2021/09/24 02:28:38;;;;;;;13.30;10.37;;;;;;;;;;5118079;28;20228;-60
2021/09/24 02:31:09;;;;;;;18.37;11.40;;;;;;;;;;5118211;28;20236;-60
2021/09/24 02:33:37;;;;;;;15.70;10.60;;;;;;;;;;5117853;28;20261;-60
2021/09/24 02:36:06;;;;;;;15.20;10.73;;;;;;;;;;5118350;28;20201;-60
2021/09/24 02:38:34;;;;;;;13.43;10.10;;;;;;;;;;5117810;28;20259;-60
2021/09/24 02:41:02;;;;;;;16.47;10.50;;;;;;;;;;5118118;28;20236;-61
2021/09/24 02:43:30;;;;;;;15.23;11.73;;;;;;;;;;5118215;28;20243;-62
2021/09/24 02:45:58;;;;;;;16.30;11.37;;;;;;;;;;5117764;28;20204;-60
2021/09/24 02:48:28;;;;;;;16.80;11.50;;;;;;;;;;5117996;28;20232;-61
2021/09/24 02:50:56;;;;;;;14.87;10.90;;;;;;;;;;5117817;28;20223;-60
2021/09/24 02:53:24;;;;;;;16.37;10.23;;;;;;;;;;5117949;28;20258;-61
2021/09/24 02:55:52;;;;;;;17.27;10.80;;;;;;;;;;5117707;28;20204;-62
2021/09/24 02:58:23;;;;;;;16.77;10.97;;;;;;;;;;5117757;28;20246;-62
2021/09/24 03:00:51;;;;;;;16.53;11.03;;;;;;;;;;5117763;28;20204;-62
2021/09/24 03:03:19;;;;;;;15.53;11.30;;;;;;;;;;5107612;28;20201;-62
2021/09/24 03:05:49;;;;;;;15.27;10.37;;;;;;;;;;5118107;28;20307;-62
2021/09/24 03:08:17;;;;;;;15.53;11.63;;;;;;;;;;5121731;28;20208;-62
2021/09/24 03:10:45;;;;;;;15.17;10.80;;;;;;;;;;5121572;28;20208;-62
2021/09/24 03:13:13;;;;;;;13.67;10.77;;;;;;;;;;5121499;28;20549;-62
2021/09/24 03:15:41;;;;;;;14.10;10.80;;;;;;;;;;5121501;28;20620;-62
2021/09/24 03:18:09;;;;;;;15.67;11.40;;;;;;;;;;5121446;28;20641;-62
2021/09/24 03:20:37;;;;;;;15.70;10.93;;;;;;;;;;5121543;28;20613;-62
2021/09/24 03:23:07;;;;;;;14.00;11.10;;;;;;;;;;5121418;27;20227;-63
2021/09/24 03:25:35;;;;;;;15.13;10.63;;;;;;;;;;5121446;28;20277;-62
2021/09/24 03:28:03;;;;;;;17.33;11.27;;;;;;;;;;5121387;28;20672;-62
2021/09/24 03:30:32;;;;;;;15.70;10.87;;;;;;;;;;5121879;28;20239;-62
2021/09/24 03:33:00;;;;;;;14.97;10.53;;;;;;;;;;5121475;28;20247;-62
2021/09/24 03:35:28;;;;;;;14.30;10.40;;;;;;;;;;5121602;28;20228;-62
2021/09/24 03:37:56;;;;;;;15.70;11.27;;;;;;;;;;5121539;28;20208;-62
2021/09/24 03:40:25;;;;;;;17.97;10.60;;;;;;;;;;5121124;28;20807;-62
2021/09/24 03:42:53;;;;;;;18.83;10.80;;;;;;;;;;5120954;28;20277;-62
2021/09/24 03:45:21;;;;;;;14.30;9.87;;;;;;;;;;5121172;28;20248;-62
2021/09/24 03:47:49;;;;;;;12.47;9.90;;;;;;;;;;5120933;28;20208;-62
2021/09/24 03:50:17;;;;;;;13.70;10.30;;;;;;;;;;5120993;28;20228;-62
2021/09/24 03:52:45;;;;;;;15.23;10.90;;;;;;;;;;5121081;28;20254;-62
2021/09/24 03:55:13;;;;;;;14.53;10.10;;;;;;;;;;5121189;28;20281;-62
2021/09/24 03:57:43;;;;;;;13.53;10.17;;;;;;;;;;5120906;28;20208;-62
2021/09/24 04:00:12;;;;;;;17.20;11.13;;;;;;;;;;5120945;27;20263;-62
2021/09/24 04:02:40;;;;;;;15.97;10.93;;;;;;;;;;5120521;28;20656;-62
2021/09/24 04:05:09;;;;;;;15.37;10.10;;;;;;;;;;5120920;28;20252;-62
2021/09/24 04:07:37;;;;;;;14.47;10.37;;;;;;;;;;5120424;28;20772;-62
2021/09/24 04:10:05;;;;;;;16.57;10.13;;;;;;;;;;5120707;28;20236;-62
2021/09/24 04:12:34;;;;;;;15.10;10.20;;;;;;;;;;5120346;28;20250;-62
2021/09/24 04:15:04;;;;;;;15.17;11.27;;;;;;;;;;5120657;28;20251;-62
2021/09/24 04:17:32;;;;;;;13.17;10.17;;;;;;;;;;5119379;28;20654;-62
2021/09/24 04:20:00;;;;;;;13.80;10.17;;;;;;;;;;5120463;28;20224;-61
2021/09/24 04:22:28;;;;;;;17.57;12.00;;;;;;;;;;5120485;28;20205;-62
2021/09/24 04:24:56;;;;;;;17.83;10.00;;;;;;;;;;5120124;28;20259;-62
2021/09/24 04:27:24;;;;;;;18.43;11.00;;;;;;;;;;5120041;28;20656;-62
2021/09/24 04:29:52;;;;;;;15.50;10.50;;;;;;;;;;5120555;28;20201;-61
2021/09/24 04:32:21;;;;;;;14.83;10.07;;;;;;;;;;5120604;28;20246;-62
2021/09/24 04:34:53;;;;;;;15.20;10.47;;;;;;;;;;5120460;28;20759;-62
2021/09/24 04:37:21;;;;;;;16.37;11.00;;;;;;;;;;5120466;28;20208;-62
2021/09/24 04:39:49;;;;;;;14.80;10.40;;;;;;;;;;5120223;28;20239;-62
2021/09/24 04:42:17;;;;;;;15.87;10.67;;;;;;;;;;5120224;28;20219;-61
2021/09/24 04:44:45;;;;;;;13.90;10.33;;;;;;;;;;5119922;28;20652;-62
2021/09/24 04:47:13;;;;;;;13.73;9.67;;;;;;;;;;5119909;27;20211;-62
2021/09/24 04:49:42;;;;;;;13.23;10.53;;;;;;;;;;5119887;28;20664;-62
2021/09/24 04:52:10;;;;;;;20.20;11.27;;;;;;;;;;5120094;28;20207;-62
2021/09/24 04:54:38;;;;;;;14.87;9.87;;;;;;;;;;5119677;27;20754;-62
2021/09/24 04:57:06;;;;;;;14.83;10.93;;;;;;;;;;5119486;28;20208;-62
2021/09/24 04:59:34;;;;;;;17.20;10.33;;;;;;;;;;5119607;28;20224;-62
2021/09/24 05:02:02;;;;;;;16.30;11.40;;;;;;;;;;5119642;28;20677;-60
2021/09/24 05:04:30;;;;;;;15.43;11.17;;;;;;;;;;5105649;28;20303;-61
2021/09/24 05:07:00;;;;;;;13.13;10.33;;;;;;;;;;5119614;27;20240;-61
2021/09/24 05:09:27;;;;;;;16.93;10.63;;;;;;;;;;5119972;28;20201;-61
2021/09/24 05:11:55;;;;;;;15.80;11.00;;;;;;;;;;5119025;28;20235;-60
2021/09/24 05:14:24;;;;;;;16.67;11.07;;;;;;;;;;5119627;28;20228;-60
2021/09/24 05:16:52;;;;;;;14.40;10.37;;;;;;;;;;5119383;27;20223;-60
2021/09/24 05:19:20;;;;;;;16.57;11.40;;;;;;;;;;5119095;28;20205;-61
2021/09/24 05:21:48;;;;;;;14.70;10.17;;;;;;;;;;5119481;27;20680;-61
2021/09/24 05:24:17;;;;;;;13.60;10.50;;;;;;;;;;5119104;28;20235;-61
2021/09/24 05:26:45;;;;;;;12.17;9.47;;;;;;;;;;5118621;28;20204;-62
2021/09/24 05:29:13;;;;;;;17.50;10.83;;;;;;;;;;5118937;28;20201;-61
2021/09/24 05:31:41;;;;;;;14.70;10.53;;;;;;;;;;5119172;28;20215;-62
2021/09/24 05:34:09;;;;;;;14.53;10.67;;;;;;;;;;5119254;28;20225;-61
2021/09/24 05:36:37;;;;;;;13.87;10.00;;;;;;;;;;5118791;28;20205;-62
2021/09/24 05:39:05;;;;;;;13.73;10.23;;;;;;;;;;5119268;28;20211;-62
2021/09/24 05:41:34;;;;;;;13.07;9.20;;;;;;;;;;5118257;28;20235;-62
2021/09/24 05:44:03;;;;;;;18.47;10.13;;;;;;;;;;5118688;28;20227;-62
2021/09/24 05:46:31;;;;;;;15.07;11.43;;;;;;;;;;5118860;28;20208;-62
2021/09/24 05:48:58;;;;;;;18.33;12.17;;;;;;;;;;5118677;28;20215;-63
2021/09/24 05:51:26;;;;;;;16.60;12.63;;;;;;;;;;5118885;28;20205;-63
2021/09/24 05:53:54;;;;;;;18.47;12.60;;;;;;;;;;5118794;27;20733;-61
2021/09/24 05:56:22;;;;;;;16.10;11.97;;;;;;;;;;5118408;28;20627;-62
2021/09/24 05:58:52;;;;;;;16.43;12.27;;;;;;;;;;5118601;28;20216;-63
2021/09/24 06:01:20;;;;;;;16.67;12.13;;;;;;;;;;5118537;28;20760;-63
2021/09/24 06:03:48;;;;;;;17.73;12.90;;;;;;;;;;5118316;28;20216;-63
2021/09/24 06:06:16;;;;;;;19.27;11.77;;;;;;;;;;5118532;28;20323;-63
2021/09/24 06:08:49;;;;;;;22.20;12.20;;;;;;;;;;5118642;28;20208;-63
2021/09/24 06:11:17;;;;;;;22.10;12.67;;;;;;;;;;5118418;28;20205;-63
2021/09/24 06:13:45;;;;;;;15.07;11.20;;;;;;;;;;5118393;27;20264;-63
2021/09/24 06:16:15;;;;;;;20.07;11.87;;;;;;;;;;5118455;28;20204;-63
2021/09/24 06:18:43;;;;;;;17.13;10.87;;;;;;;;;;5118163;28;20655;-63
2021/09/24 06:21:11;;;;;;;19.63;11.27;;;;;;;;;;5118448;28;20228;-63
2021/09/24 06:23:39;;;;;;;17.07;11.50;;;;;;;;;;5118316;28;20212;-63
2021/09/24 06:26:08;;;;;;;14.93;10.67;;;;;;;;;;5118178;28;20654;-63
2021/09/24 06:28:35;;;;;;;16.23;11.57;;;;;;;;;;5117890;28;20619;-63
2021/09/24 06:31:03;;;;;;;15.40;11.10;;;;;;;;;;5118256;28;20204;-63
2021/09/24 06:33:33;;;;;;;13.73;11.27;;;;;;;;;;5118291;28;20219;-63
2021/09/24 06:36:01;;;;;;;18.37;10.97;;;;;;;;;;5118288;28;20215;-63
2021/09/24 06:38:29;;;;;;;16.10;12.10;;;;;;;;;;5117801;28;20259;-63
2021/09/24 06:40:57;;;;;;;15.97;10.80;;;;;;;;;;5118019;28;20221;-63
2021/09/24 06:43:25;;;;;;;17.70;11.37;;;;;;;;;;5117743;28;20219;-63
2021/09/24 06:45:53;;;;;;;15.33;11.27;;;;;;;;;;5118122;28;20209;-63
2021/09/24 06:48:21;;;;;;;16.23;12.20;;;;;;;;;;5118120;28;20232;-63
2021/09/24 06:50:50;;;;;;;14.83;10.63;;;;;;;;;;5117774;28;20254;-63
2021/09/24 06:53:18;;;;;;;16.50;11.83;;;;;;;;;;5118092;28;20209;-63
2021/09/24 06:55:46;;;;;;;19.40;11.33;;;;;;;;;;5117996;28;20232;-63
2021/09/24 06:58:14;;;;;;;16.07;11.23;;;;;;;;;;5117633;28;20209;-63
2021/09/24 07:00:43;;;;;;;19.10;10.43;;;;;;;;;;5117515;28;20664;-63
2021/09/24 07:03:11;;;;;;;19.30;12.57;;;;;;;;;;5118057;28;20275;-63
2021/09/24 07:05:39;;;;;;;18.73;12.80;;;;;;;;;;5117365;28;20324;-63
2021/09/24 07:08:08;;;;;;;22.53;12.20;;;;;;;;;;5117710;28;20273;-63
2021/09/24 07:10:36;;;;;;;16.90;12.53;;;;;;;;;;5117722;27;20209;-62
2021/09/24 07:13:05;;;;;;;28.23;15.57;;;;;;;;;;5117362;28;20216;-62
2021/09/24 07:15:33;;;;;;;21.20;13.97;;;;;;;;;;5117556;28;20225;-63
2021/09/24 07:18:01;;;;;;;26.37;13.80;;;;;;;;;;5117661;28;20205;-62
2021/09/24 07:20:29;;;;;;;26.67;13.67;;;;;;;;;;5117545;28;20243;-62
2021/09/24 07:23:18;;;;;;;21.20;13.20;;;;;;;;;;5117639;28;20593;-64
2021/09/24 07:25:46;;;;;;;21.67;12.43;;;;;;;;;;5117844;28;20221;-63
2021/09/24 07:28:14;;;;;;;20.47;13.70;;;;;;;;;;5117346;28;20209;-63
2021/09/24 07:30:42;;;;;;;18.90;13.17;;;;;;;;;;5117947;28;20636;-61
2021/09/24 07:33:10;;;;;;;21.50;13.70;;;;;;;;;;5117295;28;20209;-63
2021/09/24 07:35:39;;;;;;;21.43;13.50;;;;;;;;;;5117463;28;20700;-64
2021/09/24 07:38:07;;;;;;;21.90;13.60;;;;;;;;;;5117609;28;20205;-63
2021/09/24 07:40:36;;;;;;;19.97;13.67;;;;;;;;;;5117687;28;20209;-63
2021/09/24 07:43:04;;;;;;;23.83;14.43;;;;;;;;;;5117338;28;20211;-64
2021/09/24 07:45:32;;;;;;;20.80;13.77;;;;;;;;;;5117416;28;20229;-63
2021/09/24 07:48:00;;;;;;;21.60;14.00;;;;;;;;;;5117535;28;20215;-63
2021/09/24 07:50:28;;;;;;;24.27;13.00;;;;;;;;;;5118399;28;20201;-64
2021/09/24 07:52:56;;;;;;;19.77;12.73;;;;;;;;;;5120866;28;20577;-63
2021/09/24 07:55:24;;;;;;;21.50;13.87;;;;;;;;;;5120850;28;20228;-63
2021/09/24 07:57:56;;;;;;;21.00;13.73;;;;;;;;;;5120644;28;20675;-63
2021/09/24 08:00:25;;;;;;;19.10;12.57;;;;;;;;;;5121092;28;20204;-61
2021/09/24 08:02:54;;;;;;;22.80;14.13;;;;;;;;;;5120474;28;20710;-61
2021/09/24 08:05:22;;;;;;;18.43;13.10;;;;;;;;;;5120631;28;20626;-62
2021/09/24 08:07:50;;;;;;;21.50;14.20;;;;;;;;;;5120444;28;20609;-62
2021/09/24 08:10:18;;;;;;;23.60;14.37;;;;;;;;;;5120582;28;20215;-62
2021/09/24 08:12:47;;;;;;;21.60;13.37;;;;;;;;;;5120239;28;20228;-62
2021/09/24 08:15:17;;;;;;;21.97;13.70;;;;;;;;;;5120452;27;20224;-61
2021/09/24 08:17:45;;;;;;;20.77;13.90;;;;;;;;;;5120618;28;20666;-62
2021/09/24 08:20:13;;;;;;;18.97;13.10;;;;;;;;;;5120490;27;20565;-62
2021/09/24 08:22:42;;;;;;;19.47;14.23;;;;;;;;;;5120711;28;20298;-63
2021/09/24 08:25:11;;;;;;;21.30;14.30;;;;;;;;;;5120088;27;20225;-63
2021/09/24 08:27:39;;;;;;;24.53;15.30;;;;;;;;;;5120002;28;20212;-63
2021/09/24 08:30:09;;;;;;;21.10;14.27;;;;;;;;;;5120587;28;20209;-63
2021/09/24 08:32:39;;;;;;;25.40;14.40;;;;;;;;;;5120098;27;20691;-63
2021/09/24 08:35:08;;;;;;;18.43;13.37;;;;;;;;;;5120428;28;20256;-63
2021/09/24 08:37:36;;;;;;;20.50;14.23;;;;;;;;;;5120140;28;20209;-61
2021/09/24 08:40:05;;;;;;;18.67;12.73;;;;;;;;;;5120283;28;20205;-61
2021/09/24 08:42:33;;;;;;;20.23;14.53;;;;;;;;;;5119618;27;20584;-61
2021/09/24 08:45:02;;;;;;;22.67;15.17;;;;;;;;;;5120196;28;20252;-61
2021/09/24 08:47:30;;;;;;;25.97;15.10;;;;;;;;;;5119503;28;20209;-61
2021/09/24 08:50:00;;;;;;;22.53;14.90;;;;;;;;;;5120135;28;20268;-61
2021/09/24 08:52:28;;;;;;;26.53;15.17;;;;;;;;;;5119937;28;20201;-61
2021/09/24 08:54:56;;;;;;;22.67;15.30;;;;;;;;;;5120121;28;20229;-61
2021/09/24 08:57:24;;;;;;;22.60;15.40;;;;;;;;;;5119574;28;20212;-60
2021/09/24 08:59:52;;;;;;;22.73;16.07;;;;;;;;;;5120098;28;20201;-61
2021/09/24 09:02:20;;;;;;;21.00;13.30;;;;;;;;;;5119142;28;20229;-62
2021/09/24 09:04:49;;;;;;;22.27;15.27;;;;;;;;;;5119762;28;20283;-62
2021/09/24 09:07:21;;;;;;;21.63;15.37;;;;;;;;;;5119206;28;20239;-62
2021/09/24 09:09:50;;;;;;;21.90;14.97;;;;;;;;;;5119846;28;20244;-62
2021/09/24 09:12:20;;;;;;;27.10;15.60;;;;;;;;;;5119360;28;20205;-62
2021/09/24 09:14:57;;;;;;;21.07;15.80;;;;;;;;;;5119588;28;20231;-62
2021/09/24 09:17:28;;;;;;;21.93;15.47;;;;;;;;;;5119185;28;20239;-62
2021/09/24 09:20:24;;;;;;;25.40;16.00;;;;;;;;;;5119215;28;20560;-62
2021/09/24 09:23:05;;;;;;;21.50;16.80;;;;;;;;;;5083374;28;20228;-62
2021/09/24 09:25:34;;;;;;;27.00;16.70;;;;;;;;;;5119267;28;20307;-61
2021/09/24 09:28:04;;;;;;;23.50;15.87;;;;;;;;;;5118901;28;20293;-62
2021/09/24 09:30:33;;;;;;;20.53;15.53;;;;;;;;;;5119025;28;20209;-61
2021/09/24 09:33:02;;;;;;;25.57;15.63;;;;;;;;;;5118955;28;20211;-61
2021/09/24 09:35:34;;;;;;;24.47;16.17;;;;;;;;;;5119010;28;20225;-62
2021/09/24 09:38:04;;;;;;;26.90;16.03;;;;;;;;;;5119041;28;20215;-63
2021/09/24 09:40:32;;;;;;;28.10;18.13;;;;;;;;;;5118849;28;20212;-61
2021/09/24 09:43:00;;;;;;;25.23;16.83;;;;;;;;;;5118626;28;20235;-63
2021/09/24 09:45:28;;;;;;;23.47;16.33;;;;;;;;;;5118830;28;20312;-63
2021/09/24 09:47:56;;;;;;;22.40;16.07;;;;;;;;;;5118717;28;20214;-62
2021/09/24 09:50:25;;;;;;;25.20;15.70;;;;;;;;;;5118674;28;20761;-63
2021/09/24 09:52:54;;;;;;;33.30;14.93;;;;;;;;;;5118586;28;20665;-62
2021/09/24 09:55:24;;;;;;;20.53;14.80;;;;;;;;;;5118821;28;20221;-62
2021/09/24 09:57:52;;;;;;;20.83;14.30;;;;;;;;;;5117971;28;20714;-62
2021/09/24 10:00:20;;;;;;;16.77;12.93;;;;;;;;;;5118958;28;20204;-62
2021/09/24 10:03:01;;;;;;;21.17;14.10;;;;;;;;;;5118345;28;20221;-62
2021/09/24 10:05:35;;;;;;;23.77;15.60;;;;;;;;;;5118620;28;20225;-63
2021/09/24 10:08:19;;;;;;;29.30;14.50;;;;;;;;;;5118742;28;20208;-61
2021/09/24 10:10:55;;;;;;;21.37;13.90;;;;;;;;;;5118658;28;20211;-61
2021/09/24 10:13:24;;;;;;;22.57;14.20;;;;;;;;;;5117876;28;20209;-61
2021/09/24 10:15:52;;;;;;;20.47;14.63;;;;;;;;;;5117941;28;20296;-62
2021/09/24 10:18:20;;;;;;;23.47;14.63;;;;;;;;;;5118332;28;20233;-62
2021/09/24 10:20:52;;;;;;;30.23;14.07;;;;;;;;;;5118435;28;20296;-62
2021/09/24 10:23:20;;;;;;;21.77;15.00;;;;;;;;;;5118061;28;20610;-61
2021/09/24 10:25:51;;;;;;;24.80;15.90;;;;;;;;;;5118236;28;20221;-62
2021/09/24 10:28:20;;;;;;;24.83;15.17;;;;;;;;;;5118415;28;20204;-62
2021/09/24 10:30:48;;;;;;;20.33;14.43;;;;;;;;;;5118207;28;20679;-62
2021/09/24 10:33:18;;;;;;;25.37;15.67;;;;;;;;;;5117826;28;20204;-62
2021/09/24 10:35:47;;;;;;;27.73;14.47;;;;;;;;;;5118148;28;20312;-62
2021/09/24 10:38:16;;;;;;;28.50;15.63;;;;;;;;;;5118281;28;20227;-62
2021/09/24 10:40:55;;;;;;;23.93;14.47;;;;;;;;;;5118299;28;20204;-62
2021/09/24 10:43:25;;;;;;;23.77;12.50;;;;;;;;;;5118141;28;20312;-62
2021/09/24 10:45:53;;;;;;;23.30;13.23;;;;;;;;;;5117912;28;20208;-62
2021/09/24 10:48:23;;;;;;;25.57;13.67;;;;;;;;;;5118069;28;20209;-62
2021/09/24 10:51:07;;;;;;;18.93;12.40;;;;;;;;;;5118500;28;20208;-62
2021/09/24 10:53:41;;;;;;;16.93;11.27;;;;;;;;;;5117799;28;20203;-62
2021/09/24 10:56:27;;;;;;;18.73;12.13;;;;;;;;;;5117756;28;20236;-62
2021/09/24 10:58:56;;;;;;;20.37;11.53;;;;;;;;;;5117872;28;20204;-62
2021/09/24 11:01:45;;;;;;;15.03;10.00;;;;;;;;;;5117511;28;20546;-62
2021/09/24 11:04:14;;;;;;;15.40;10.43;;;;;;;;;;5113095;28;20224;-62
2021/09/24 11:06:47;;;;;;;13.57;9.40;;;;;;;;;;5117529;28;20232;-62
2021/09/24 11:09:17;;;;;;;14.00;10.23;;;;;;;;;;5117717;28;20229;-62
2021/09/24 11:11:46;;;;;;;18.07;10.47;;;;;;;;;;5117740;28;20209;-61
2021/09/24 11:14:26;;;;;;;12.90;8.87;;;;;;;;;;5118092;28;20228;-62
2021/09/24 11:16:54;;;;;;;13.63;8.87;;;;;;;;;;5117803;28;20208;-61
2021/09/24 11:19:43;;;;;;;12.47;8.90;;;;;;;;;;5117779;28;20201;-61
2021/09/24 11:22:22;;;;;;;11.60;9.63;;;;;;;;;;5113025;27;20212;-62
2021/09/24 11:25:05;;;;;;;11.40;8.47;;;;;;;;;;5117850;28;20209;-61
2021/09/24 11:27:34;;;;;;;10.20;8.53;;;;;;;;;;5121620;28;20212;-61
2021/09/24 11:30:13;;;;;;;12.70;9.10;;;;;;;;;;5121644;28;20233;-60
2021/09/24 11:32:42;;;;;;;9.67;8.20;;;;;;;;;;5121380;28;20256;-62
2021/09/24 11:35:11;;;;;;;16.53;9.83;;;;;;;;;;5121476;28;20234;-62
2021/09/24 11:37:40;;;;;;;12.97;9.03;;;;;;;;;;5121669;28;20208;-63
2021/09/24 11:40:10;;;;;;;11.23;8.70;;;;;;;;;;5121252;28;20205;-61
2021/09/24 11:42:39;;;;;;;11.10;8.10;;;;;;;;;;5121146;28;20206;-61
2021/09/24 11:45:08;;;;;;;7.90;7.10;;;;;;;;;;5121408;28;20225;-61
2021/09/24 11:47:40;;;;;;;10.73;6.80;;;;;;;;;;5120997;27;20560;-62
2021/09/24 11:50:09;;;;;;;9.43;8.23;;;;;;;;;;5121311;28;20209;-61
2021/09/24 11:52:40;;;;;;;11.10;8.07;;;;;;;;;;5121267;28;20217;-61
2021/09/24 11:55:19;;;;;;;11.73;8.23;;;;;;;;;;5121025;28;20211;-61
2021/09/24 11:57:58;;;;;;;17.33;8.13;;;;;;;;;;5120460;28;20297;-61
2021/09/24 12:00:27;;;;;;;10.77;7.50;;;;;;;;;;5121142;28;20210;-63
2021/09/24 12:03:25;;;;;;;7.77;6.70;;;;;;;;;;5107188;28;20202;-63
2021/09/24 12:05:57;;;;;;;9.63;7.20;;;;;;;;;;5057413;28;20207;-60
2021/09/24 12:08:26;;;;;;;8.10;7.20;;;;;;;;;;5107897;28;20205;-63
2021/09/24 12:10:58;;;;;;;12.07;7.43;;;;;;;;;;5120433;28;20266;-63
2021/09/24 12:13:35;;;;;;;8.00;6.87;;;;;;;;;;5120334;28;20205;-63
2021/09/24 12:16:03;;;;;;;8.53;6.97;;;;;;;;;;5120448;28;20235;-63
2021/09/24 12:18:45;;;;;;;8.43;7.20;;;;;;;;;;5120458;28;20683;-61
2021/09/24 12:21:16;;;;;;;10.97;7.20;;;;;;;;;;5120445;28;20286;-61
2021/09/24 12:23:44;;;;;;;15.70;9.93;;;;;;;;;;5120449;28;20217;-61
2021/09/24 12:26:13;;;;;;;7.73;6.90;;;;;;;;;;5120163;28;20203;-61
2021/09/24 12:28:55;;;;;;;7.57;6.27;;;;;;;;;;5120309;28;20212;-61
2021/09/24 12:31:36;;;;;;;6.97;6.17;;;;;;;;;;5120140;28;20580;-63
2021/09/24 12:34:05;;;;;;;8.03;6.13;;;;;;;;;;5119931;28;20217;-62
2021/09/24 12:36:34;;;;;;;7.27;6.57;;;;;;;;;;5119271;28;20743;-60
2021/09/24 12:39:12;;;;;;;8.27;6.13;;;;;;;;;;5119805;28;20216;-60
2021/09/24 12:41:41;;;;;;;9.37;6.80;;;;;;;;;;5119812;28;20232;-62
2021/09/24 12:44:09;;;;;;;7.23;5.60;;;;;;;;;;5120417;27;20290;-61
2021/09/24 12:46:41;;;;;;;6.30;5.57;;;;;;;;;;5120011;28;20204;-62
2021/09/24 12:49:10;;;;;;;7.33;5.83;;;;;;;;;;5120244;28;20298;-63
2021/09/24 12:51:39;;;;;;;7.47;6.03;;;;;;;;;;5120153;28;20206;-60
2021/09/24 12:54:09;;;;;;;7.37;5.67;;;;;;;;;;5119926;28;20221;-62
2021/09/24 12:56:37;;;;;;;6.33;5.73;;;;;;;;;;5119751;28;20207;-61
2021/09/24 12:59:07;;;;;;;10.30;5.97;;;;;;;;;;5119444;28;20226;-61
2021/09/24 13:01:36;;;;;;;11.63;6.30;;;;;;;;;;5119818;28;20218;-60
2021/09/24 13:04:05;;;;;;;6.50;5.67;;;;;;;;;;5119651;28;20233;-60
2021/09/24 13:06:33;;;;;;;6.23;5.63;;;;;;;;;;5119500;28;20254;-60
2021/09/24 13:09:03;;;;;;;6.00;5.07;;;;;;;;;;5119578;28;20293;-60
2021/09/24 13:11:32;;;;;;;7.93;5.40;;;;;;;;;;5119488;28;20213;-61
2021/09/24 13:14:01;;;;;;;6.70;5.27;;;;;;;;;;5119605;28;20230;-61
2021/09/24 13:16:30;;;;;;;5.23;4.73;;;;;;;;;;5119502;28;20239;-61
2021/09/24 13:18:59;;;;;;;5.50;4.80;;;;;;;;;;5119345;28;20216;-61
2021/09/24 13:21:30;;;;;;;6.37;4.80;;;;;;;;;;5119367;28;20548;-62
2021/09/24 13:23:58;;;;;;;11.57;4.93;;;;;;;;;;5118977;28;20613;-61
2021/09/24 13:26:28;;;;;;;5.50;4.67;;;;;;;;;;5119069;28;20218;-60
2021/09/24 13:28:56;;;;;;;6.90;5.03;;;;;;;;;;5119045;28;20206;-61
2021/09/24 13:31:24;;;;;;;5.53;4.13;;;;;;;;;;5119188;28;20731;-61
2021/09/24 13:33:53;;;;;;;7.03;4.93;;;;;;;;;;5119339;28;20238;-60
2021/09/24 13:36:21;;;;;;;9.67;4.80;;;;;;;;;;5118827;28;20291;-61
2021/09/24 13:38:49;;;;;;;8.13;4.63;;;;;;;;;;5119271;28;20292;-60
2021/09/24 13:41:17;;;;;;;4.23;3.83;;;;;;;;;;5118773;28;20209;-61
2021/09/24 13:43:46;;;;;;;6.37;4.47;;;;;;;;;;5118702;28;20283;-60
2021/09/24 13:46:14;;;;;;;5.27;4.70;;;;;;;;;;5118840;28;20204;-61
2021/09/24 13:48:43;;;;;;;5.67;4.60;;;;;;;;;;5118523;28;20204;-62
2021/09/24 13:51:11;;;;;;;5.37;4.20;;;;;;;;;;5118849;28;20206;-62
2021/09/24 13:53:39;;;;;;;5.27;4.77;;;;;;;;;;5118680;28;20213;-62
2021/09/24 13:56:07;;;;;;;6.43;4.53;;;;;;;;;;5118301;28;20296;-60
2021/09/24 13:58:35;;;;;;;6.50;4.07;;;;;;;;;;5118692;28;20206;-61
2021/09/24 14:01:04;;;;;;;7.80;4.43;;;;;;;;;;5118417;28;20575;-61
2021/09/24 14:03:33;;;;;;;5.30;4.27;;;;;;;;;;5118288;28;20259;-62
2021/09/24 14:06:01;;;;;;;5.67;4.50;;;;;;;;;;5118283;28;20228;-62
2021/09/24 14:08:29;;;;;;;8.60;4.53;;;;;;;;;;5118689;28;20209;-62
2021/09/24 14:10:57;;;;;;;5.60;4.50;;;;;;;;;;5118128;28;20289;-62
2021/09/24 14:13:25;;;;;;;5.40;4.27;;;;;;;;;;5118642;28;20213;-62
2021/09/24 14:15:54;;;;;;;6.13;4.43;;;;;;;;;;5104773;28;20205;-62
2021/09/24 14:18:23;;;;;;;5.10;4.53;;;;;;;;;;5118256;28;20205;-62
2021/09/24 14:20:51;;;;;;;4.67;4.27;;;;;;;;;;5118294;28;20201;-63
2021/09/24 14:23:19;;;;;;;4.63;4.13;;;;;;;;;;5118077;28;20206;-63
2021/09/24 14:25:47;;;;;;;8.17;5.00;;;;;;;;;;5118044;28;20221;-63
2021/09/24 14:28:15;;;;;;;4.33;3.93;;;;;;;;;;5118488;28;20210;-63
2021/09/24 14:30:43;;;;;;;4.43;4.00;;;;;;;;;;5118366;28;20207;-62
2021/09/24 14:33:12;;;;;;;3.83;3.50;;;;;;;;;;5117992;28;20289;-63
2021/09/24 14:35:41;;;;;;;5.63;4.17;;;;;;;;;;5114878;28;20709;-63
2021/09/24 14:38:12;;;;;;;8.00;4.40;;;;;;;;;;5118185;28;20210;-63